Grafton, Iowa
Current Conditions -  °F | °C
As of 9:53 PM on Tuesday 21 Oct 2014 (Local Time) from KMCW Reporting Station
Clear Clear  
Wind Chill: 41°   Ceiling: Unl
Heat Index: 46°   Visibility: 10mi
Dew Point: 39°   Wind: 9mph
Humidity: 76%   Direction: 130°SE
Pressure: 30.2"   Gusts: NA
Location:  43.33°N, 93.07°W
Report Text: KMCW 220253Z AUTO 13008KT 10SM CLR 08/04 A3020 RMK AO2 SLP226 T00780039 53013
Loading
Personal Weather Stations






























Interactive Weather Map
Tropical Storm Tracking
New forecast layout! Learn more

10-Day Weather Forecast

Advertisements
Track Severe Weather on mobile